Terminal Aerodrome Forecast
Issued by NWS Amarillo, TX

Home | Current Version | Previous Version | Text Only | Print | Product List | Glossary On
Versions: 1 2 3 4 5 6 7 8 9 10 11 12 13 14
000
FTUS44 KAMA 032200 AAA
TAFGUY
TAF AMD
KGUY 032224Z 0322/0418 12007KT P6SM SCT025 BKN070
      TEMPO 0322/0402 VRB35G45KT 1SM +TSRA BR BKN025CB
     FM040200 13011KT P6SM VCTS BKN070CB
     FM040400 14011KT P6SM BKN080=

USA.gov is the U.S. government's official web portal to all federal, state and local government web resources and services.